Time;durP1;ratioP1;P1;durP2;ratioP2;P2;SDS_P1;SDS_P2;PMS_P1;PMS_P2;Temp;Humidity;BMP_temperature;BMP_pressure;BME280_temperature;BME280_humidity;BME280_pressure;Samples;Min_cycle;Max_cycle;Signal;HPM_P1;HPM_P2
2021/10/17 00:01:09;;;;;;;;;73.33;55.67;;;;;5.38;100.00;100120.66;6313061;20;3637742;-44
2021/10/17 00:03:39;;;;;;;;;75.67;59.33;;;;;5.39;100.00;100123.25;6316585;20;3628386;-40
2021/10/17 00:06:08;;;;;;;;;79.67;59.67;;;;;5.36;100.00;100123.34;6315528;20;3655416;-40
2021/10/17 00:08:38;;;;;;;;;81.67;61.67;;;;;5.52;100.00;100125.50;6314658;20;3651349;-42
2021/10/17 00:11:08;;;;;;;;;84.00;62.33;;;;;5.38;100.00;100116.19;6314370;20;3650244;-40
2021/10/17 00:13:37;;;;;;;;;87.00;66.33;;;;;5.26;100.00;100116.59;6279210;20;3653487;-41
2021/10/17 00:16:05;;;;;;;;;45.50;25.50;;;;;5.18;100.00;100121.31;6311472;20;2849213;-41
2021/10/17 00:18:35;;;;;;;;;91.67;69.67;;;;;5.09;100.00;100108.31;6281848;20;3676468;-41
2021/10/17 00:21:05;;;;;;;;;90.33;69.33;;;;;5.06;100.00;100111.94;6279135;20;3646265;-41
2021/10/17 00:23:35;;;;;;;;;84.67;65.33;;;;;5.07;100.00;100114.53;6314091;20;3625269;-41
2021/10/17 00:26:06;;;;;;;;;83.00;63.00;;;;;5.13;100.00;100112.59;6315997;20;3627345;-40
2021/10/17 00:28:35;;;;;;;;;86.67;65.33;;;;;4.90;100.00;100122.19;6313845;20;3638823;-42
2021/10/17 00:31:05;;;;;;;;;87.67;67.00;;;;;4.78;100.00;100119.91;6313246;20;3635757;-42
2021/10/17 00:33:35;;;;;;;;;77.67;60.33;;;;;4.77;100.00;100115.50;6313207;20;3638813;-42
2021/10/17 00:36:05;;;;;;;;;78.33;60.00;;;;;4.85;100.00;100108.16;6315173;20;3639829;-41
2021/10/17 00:38:35;;;;;;;;;83.00;62.33;;;;;4.47;100.00;100106.66;6314121;20;3655512;-41
2021/10/17 00:41:04;;;;;;;;;70.33;57.00;;;;;4.57;100.00;100111.66;6279002;20;2879651;-41
2021/10/17 00:43:34;;;;;;;;;83.00;60.00;;;;;4.76;100.00;100109.31;6313572;20;3649310;-40
2021/10/17 00:46:04;;;;;;;;;80.33;60.33;;;;;4.98;100.00;100106.84;6312828;20;3640919;-40
2021/10/17 00:48:33;;;;;;;;;74.67;60.00;;;;;4.69;100.00;100109.56;6312150;20;3623171;-42
2021/10/17 00:51:03;;;;;;;;;85.67;63.33;;;;;4.64;100.00;100111.50;6314371;20;3652353;-41
2021/10/17 00:53:32;;;;;;;;;80.00;61.00;;;;;4.34;100.00;100104.34;6311287;20;3639792;-41
2021/10/17 00:56:03;;;;;;;;;80.00;61.67;;;;;4.21;100.00;100102.09;6311695;20;3641898;-41
2021/10/17 00:58:33;;;;;;;;;77.00;57.00;;;;;4.18;100.00;100101.28;6279689;20;3637742;-42
2021/10/17 01:01:04;;;;;;;;;76.33;58.33;;;;;4.21;100.00;100096.78;6311842;20;3639810;-43
2021/10/17 01:03:33;;;;;;;;;80.33;59.00;;;;;4.05;100.00;100099.03;6312532;20;3645037;-41
2021/10/17 01:06:08;;;;;;;;;71.00;54.00;;;;;4.15;100.00;100097.84;6314539;20;3626371;-42
2021/10/17 01:08:39;;;;;;;;;63.00;49.00;;;;;4.15;100.00;100098.72;6312719;20;2866026;-43
2021/10/17 01:11:09;;;;;;;;;60.50;48.00;;;;;4.04;100.00;100103.47;6313433;20;2867951;-41
2021/10/17 01:13:37;;;;;;;;;63.00;51.00;;;;;3.84;100.00;100092.50;6279626;20;2869239;-41
2021/10/17 01:16:07;;;;;;;;;68.00;53.67;;;;;3.68;100.00;100094.72;6281921;20;3627331;-40
2021/10/17 01:18:37;;;;;;;;;68.67;51.33;;;;;3.30;100.00;100091.28;6312628;20;3635648;-41
2021/10/17 01:21:07;;;;;;;;;73.67;55.67;;;;;3.38;100.00;100096.41;6309694;20;3635707;-41
2021/10/17 01:23:37;;;;;;;;;79.00;57.33;;;;;3.36;100.00;100087.59;6310813;20;3648188;-42
2021/10/17 01:26:06;;;;;;;;;71.00;54.00;;;;;3.45;100.00;100090.91;6311453;20;3638839;-41
2021/10/17 01:28:36;;;;;;;;;74.67;58.33;;;;;2.99;100.00;100099.13;6310932;20;3629891;-45
2021/10/17 01:31:05;;;;;;;;;72.33;55.67;;;;;3.18;100.00;100095.09;6312062;20;3628411;-40
2021/10/17 01:33:34;;;;;;;;;75.50;58.00;;;;;3.17;100.00;100096.03;6312548;20;2881523;-39
2021/10/17 01:36:04;;;;;;;;;73.67;58.33;;;;;3.25;100.00;100099.34;6281677;20;3635730;-41
2021/10/17 01:38:34;;;;;;;;;70.33;54.33;;;;;3.61;100.00;100101.13;6311911;20;3620071;-42
2021/10/17 01:41:03;;;;;;;;;70.00;52.67;;;;;3.34;100.00;100100.03;6314339;20;2882643;-41
2021/10/17 01:43:32;;;;;;;;;58.00;47.00;;;;;3.95;100.00;100106.41;6311952;20;3593260;-42
2021/10/17 01:46:02;;;;;;;;;69.67;52.33;;;;;3.91;100.00;100099.41;6281345;20;3644004;-41
2021/10/17 01:48:31;;;;;;;;;63.33;51.00;;;;;3.28;100.00;100104.59;6310971;20;2869106;-44
2021/10/17 01:51:00;;;;;;;;;61.00;48.00;;;;;3.55;100.00;100101.28;6313698;20;2863029;-41
2021/10/17 01:53:29;;;;;;;;;58.00;45.50;;;;;3.19;100.00;100099.53;6278789;20;2855470;-40
2021/10/17 01:56:01;;;;;;;;;50.00;41.33;;;;;3.64;100.00;100115.19;6281645;20;2867078;-41
2021/10/17 01:58:31;;;;;;;;;49.00;43.67;;;;;3.89;100.00;100109.19;6311564;20;2867074;-41
2021/10/17 02:01:01;;;;;;;;;55.00;43.00;;;;;3.48;100.00;100103.22;6311302;20;3631555;-43
2021/10/17 02:03:31;;;;;;;;;52.00;41.00;;;;;3.01;100.00;100107.94;6311433;20;2869096;-40
2021/10/17 02:06:02;;;;;;;;;53.50;42.50;;;;;3.21;100.00;100115.38;6310474;20;2863924;-42
2021/10/17 02:08:32;;;;;;;;;54.67;41.67;;;;;2.91;100.00;100114.34;6280428;20;3607504;-41
2021/10/17 02:11:01;;;;;;;;;56.67;41.67;;;;;3.07;100.00;100110.41;6312620;20;3629371;-42
2021/10/17 02:13:31;;;;;;;;;52.33;41.67;;;;;3.38;100.00;100112.34;6310160;20;2881599;-41
2021/10/17 02:16:01;;;;;;;;;46.67;35.00;;;;;3.10;100.00;100120.09;6312155;20;2875273;-42
2021/10/17 02:18:29;;;;;;;;;53.50;43.00;;;;;3.68;100.00;100113.31;6309250;20;2858717;-42
2021/10/17 02:21:00;;;;;;;;;101.67;79.00;;;;;3.71;100.00;100124.75;6280509;20;3692133;-41
2021/10/17 02:23:32;;;;;;;;;82.33;59.33;;;;;3.76;100.00;100124.59;6276147;20;3659686;-41
2021/10/17 02:26:02;;;;;;;;;72.67;52.00;;;;;3.86;100.00;100123.44;6275566;20;2892071;-41
2021/10/17 02:28:31;;;;;;;;;61.00;47.00;;;;;3.82;100.00;100123.56;6308030;20;2863445;-42
2021/10/17 02:31:01;;;;;;;;;48.67;41.00;;;;;4.01;100.00;100121.28;6309814;20;3608676;-42
2021/10/17 02:33:30;;;;;;;;;51.00;41.00;;;;;4.00;100.00;100120.41;6310379;20;2838823;-41
2021/10/17 02:36:00;;;;;;;;;46.50;43.00;;;;;4.05;100.00;100118.47;6283210;20;2492996;-42
2021/10/17 02:38:29;;;;;;;;;51.50;43.00;;;;;4.04;100.00;100119.41;6286352;20;2850308;-41
2021/10/17 02:40:59;;;;;;;;;56.67;41.67;;;;;4.07;100.00;100110.47;6286472;20;3629389;-41
2021/10/17 02:43:28;;;;;;;;;53.00;43.00;;;;;3.99;100.00;100108.03;6317730;20;2845039;-41
2021/10/17 02:45:57;;;;;;;;;52.00;43.00;;;;;3.83;100.00;100112.91;6285647;20;2841966;-41
2021/10/17 02:48:25;;;;;;;;;59.00;46.50;;;;;3.73;100.00;100114.06;6283552;20;2856537;-41
2021/10/17 02:50:55;;;;;;;;;68.33;48.67;;;;;3.71;100.00;100121.19;6282803;20;2881637;-41
2021/10/17 02:53:24;;;;;;;;;65.33;45.67;;;;;3.84;100.00;100114.63;6316400;20;3617955;-42
2021/10/17 02:55:54;;;;;;;;;56.33;41.00;;;;;4.10;100.00;100116.56;6315142;20;3635813;-41
2021/10/17 02:58:23;;;;;;;;;62.50;49.00;;;;;3.82;100.00;100118.25;6315719;20;2864888;-41
2021/10/17 03:00:53;;;;;;;;;98.33;66.00;;;;;3.88;100.00;100110.13;6285661;20;3674178;-41
2021/10/17 03:03:22;;;;;;;;;91.33;64.33;;;;;3.79;100.00;100115.66;6284907;20;3633566;-40
2021/10/17 03:05:52;;;;;;;;;79.00;58.67;;;;;3.89;100.00;100118.03;6316804;20;3641900;-41
2021/10/17 03:08:22;;;;;;;;;86.33;60.67;;;;;3.74;100.00;100115.81;6311191;20;3653467;-41
2021/10/17 03:10:51;;;;;;;;;77.67;55.67;;;;;3.54;100.00;100120.78;6282503;20;3643970;-41
2021/10/17 03:13:21;;;;;;;;;76.00;52.33;;;;;3.81;100.00;100127.13;6316144;20;3641900;-41
2021/10/17 03:15:50;;;;;;;;;80.00;58.00;;;;;3.69;100.00;100128.34;6315268;20;3513830;-41
2021/10/17 03:18:19;;;;;;;;;59.00;46.00;;;;;3.55;100.00;100133.13;6313030;20;2867962;-41
2021/10/17 03:20:47;;;;;;;;;59.00;47.00;;;;;3.65;100.00;100127.53;6282728;20;2497149;-41
2021/10/17 03:23:16;;;;;;;;;63.50;50.00;;;;;3.74;100.00;100135.28;6279529;20;2864855;-41
2021/10/17 03:25:46;;;;;;;;;63.67;48.33;;;;;3.74;100.00;100137.06;6284494;20;2877730;-41
2021/10/17 03:28:14;;;;;;;;;54.50;44.50;;;;;3.50;100.00;100136.78;6308918;20;2495046;-40
2021/10/17 03:30:43;;;;;;;;;60.67;45.00;;;;;3.56;100.00;100132.22;6283970;20;2881497;-43
2021/10/17 03:33:13;;;;;;;;;59.00;43.67;;;;;3.88;100.00;100142.00;6316029;20;2871186;-42
2021/10/17 03:35:43;;;;;;;;;53.33;43.00;;;;;3.93;100.00;100142.75;6313072;20;2868999;-41
2021/10/17 03:38:12;;;;;;;;;47.00;37.33;;;;;3.89;100.00;100144.59;6314269;20;2869152;-42
2021/10/17 03:40:42;;;;;;;;;50.67;39.33;;;;;3.79;100.00;100142.22;6312940;20;3632728;-43
2021/10/17 03:43:12;;;;;;;;;44.33;37.00;;;;;3.74;100.00;100140.59;6315404;20;3627707;-41
2021/10/17 03:45:41;;;;;;;;;44.33;38.33;;;;;3.86;100.00;100143.81;6311463;20;2867007;-40
2021/10/17 03:48:11;;;;;;;;;37.67;34.00;;;;;3.73;100.00;100141.47;6315692;20;2867057;-40
2021/10/17 03:50:41;;;;;;;;;37.33;33.33;;;;;4.13;100.00;100143.09;6313746;20;2864822;-40
2021/10/17 03:53:11;;;;;;;;;42.00;35.00;;;;;4.25;100.00;100151.63;6312786;20;2872263;-41
2021/10/17 03:55:41;;;;;;;;;51.67;38.00;;;;;4.35;100.00;100145.13;6312143;20;2880561;-42
2021/10/17 03:58:10;;;;;;;;;49.33;34.67;;;;;4.38;100.00;100148.56;6313446;20;3629386;-42
2021/10/17 04:00:40;;;;;;;;;45.00;37.00;;;;;4.43;100.00;100148.44;6313866;20;2873322;-45
2021/10/17 04:03:10;;;;;;;;;39.67;37.67;;;;;4.49;100.00;100148.25;6315673;20;2870683;-41
2021/10/17 04:05:39;;;;;;;;;41.33;32.00;;;;;4.46;100.00;100153.66;6315798;20;3606487;-43
2021/10/17 04:08:09;;;;;;;;;48.00;39.00;;;;;4.26;100.00;100145.38;6312812;20;3612744;-42
2021/10/17 04:10:38;;;;;;;;;39.67;36.33;;;;;4.34;100.00;100146.03;6315443;20;2866054;-40
2021/10/17 04:13:08;;;;;;;;;39.33;29.67;;;;;4.20;100.00;100150.88;6314800;20;2872252;-41
2021/10/17 04:15:37;;;;;;;;;39.00;32.00;;;;;4.28;100.00;100144.41;6313935;20;2857565;-42
2021/10/17 04:18:06;;;;;;;;;38.50;34.50;;;;;4.12;100.00;100143.97;6284183;20;2860699;-41
2021/10/17 04:20:35;;;;;;;;;32.50;27.00;;;;;4.15;100.00;100146.53;6282785;20;2856518;-41
2021/10/17 04:23:06;;;;;;;;;53.67;40.33;;;;;4.27;100.00;100144.47;6283416;20;3606495;-43
2021/10/17 04:25:35;;;;;;;;;51.00;42.00;;;;;4.37;100.00;100141.50;6314588;20;3622259;-41
2021/10/17 04:28:05;;;;;;;;;41.67;35.00;;;;;4.49;100.00;100145.59;6311795;20;3621083;-40
2021/10/17 04:30:35;;;;;;;;;39.00;33.00;;;;;4.56;100.00;100152.47;6314498;20;3618080;-41
2021/10/17 04:33:04;;;;;;;;;42.00;36.00;;;;;4.41;100.00;100142.28;6314601;20;3607502;-42
2021/10/17 04:35:39;;;;;;;;;52.33;40.33;;;;;4.24;100.00;100145.44;6312254;20;3620157;-42
2021/10/17 04:38:09;;;;;;;;;54.00;41.33;;;;;4.13;100.00;100143.09;6310722;20;2855526;-40
2021/10/17 04:40:38;;;;;;;;;41.50;38.00;;;;;4.27;100.00;100144.47;6314170;20;2853391;-41
2021/10/17 04:43:07;;;;;;;;;53.67;38.67;;;;;4.00;100.00;100140.78;6282970;20;2873259;-41
2021/10/17 04:45:37;;;;;;;;;36.00;36.00;;;;;4.33;100.00;100149.59;6311155;20;2864964;-40
2021/10/17 04:48:06;;;;;;;;;55.33;41.33;;;;;4.09;100.00;100145.84;6281071;20;2845082;-42
2021/10/17 04:50:36;;;;;;;;;49.00;42.00;;;;;3.91;100.00;100157.84;6313071;20;2847117;-40
2021/10/17 04:53:05;;;;;;;;;48.00;39.67;;;;;4.11;100.00;100150.22;6314298;20;2860646;-42
2021/10/17 04:55:35;;;;;;;;;70.33;55.33;;;;;4.23;100.00;100156.09;6310205;20;2863934;-41
2021/10/17 04:58:05;;;;;;;;;64.00;55.00;;;;;4.29;100.00;100163.88;6311746;20;2875382;-41
2021/10/17 05:00:35;;;;;;;;;91.33;66.67;;;;;4.14;100.00;100163.41;6280986;20;3651391;-41
2021/10/17 05:03:04;;;;;;;;;63.00;51.00;;;;;4.20;100.00;100166.81;6313835;20;2868330;-41
2021/10/17 05:05:34;;;;;;;;;69.33;52.33;;;;;4.30;100.00;100165.66;6315209;20;2878364;-42
2021/10/17 05:08:04;;;;;;;;;60.33;49.00;;;;;3.92;100.00;100170.22;6313220;20;3612752;-42
2021/10/17 05:10:33;;;;;;;;;49.33;38.00;;;;;4.16;100.00;100169.56;6316628;20;3630447;-42
2021/10/17 05:13:02;;;;;;;;;44.00;37.00;;;;;4.07;100.00;100169.81;6280971;20;3611670;-42
2021/10/17 05:15:32;;;;;;;;;33.33;33.00;;;;;4.01;100.00;100169.97;6311943;20;2852331;-40
2021/10/17 05:18:01;;;;;;;;;39.50;32.00;;;;;4.03;100.00;100178.78;6307594;20;2865920;-41
2021/10/17 05:20:31;;;;;;;;;44.00;34.33;;;;;3.71;100.00;100172.53;6280830;20;3603341;-41
2021/10/17 05:22:59;;;;;;;;;32.50;32.50;;;;;3.99;100.00;100182.41;6308970;20;2840992;-42
2021/10/17 05:25:29;;;;;;;;;49.00;36.33;;;;;3.98;100.00;100180.69;6281358;20;2874387;-41
2021/10/17 05:27:59;;;;;;;;;93.33;66.00;;;;;3.88;100.00;100179.19;6310055;20;3649240;-41
2021/10/17 05:30:28;;;;;;;;;57.00;41.33;;;;;3.68;100.00;100185.00;6313076;20;3612753;-42
2021/10/17 05:32:59;;;;;;;;;60.33;45.67;;;;;3.65;100.00;100187.75;6311751;20;2856616;-41
2021/10/17 05:35:29;;;;;;;;;44.33;35.33;;;;;3.93;100.00;100187.91;6311262;20;2881679;-41
2021/10/17 05:37:58;;;;;;;;;30.50;30.50;;;;;3.96;100.00;100188.69;6311408;20;2847161;-41
2021/10/17 05:40:27;;;;;;;;;40.50;33.00;;;;;4.07;100.00;100195.50;6280055;20;2861845;-40
2021/10/17 05:42:56;;;;;;;;;41.00;32.00;;;;;4.23;100.00;100195.97;6280529;20;2859675;-43
2021/10/17 05:45:24;;;;;;;;;45.00;42.00;;;;;4.39;100.00;100194.63;6280927;20;2852332;-41
2021/10/17 05:47:53;;;;;;;;;56.00;44.00;;;;;4.35;100.00;100198.28;6277565;20;2849390;-41
2021/10/17 05:50:22;;;;;;;;;52.00;42.50;;;;;4.38;100.00;100200.84;6281562;20;2844041;-43
2021/10/17 05:52:51;;;;;;;;;54.00;39.00;;;;;4.20;100.00;100191.59;6281601;20;3610617;-40
2021/10/17 05:55:22;;;;;;;;;92.00;66.00;;;;;4.31;100.00;100205.47;6312182;20;3650361;-41
2021/10/17 05:57:51;;;;;;;;;59.00;41.67;;;;;4.32;100.00;100195.72;6310506;20;2877487;-41
2021/10/17 06:00:21;;;;;;;;;34.00;33.00;;;;;4.70;100.00;100205.25;6314583;20;3592002;-41
2021/10/17 06:02:50;;;;;;;;;63.00;46.67;;;;;4.75;100.00;100205.13;6312709;20;2876291;-40
2021/10/17 06:05:22;;;;;;;;;52.33;36.33;;;;;5.09;100.00;100198.78;6312458;20;3641938;-41
2021/10/17 06:07:52;;;;;;;;;53.67;41.00;;;;;5.28;100.00;100203.47;6311102;20;2868050;-41
2021/10/17 06:10:21;;;;;;;;;49.00;40.67;;;;;5.20;100.00;100205.50;6312909;20;2859754;-42
2021/10/17 06:12:50;;;;;;;;;51.33;41.33;;;;;5.42;100.00;100203.03;6315593;20;3615884;-44
2021/10/17 06:15:20;;;;;;;;;59.67;45.67;;;;;5.17;100.00;100199.44;6280814;20;3606458;-41
2021/10/17 06:17:49;;;;;;;;;61.00;48.50;;;;;5.12;100.00;100204.00;6310656;20;2867032;-42
2021/10/17 06:20:18;;;;;;;;;69.00;54.67;;;;;5.54;100.00;100200.91;6280575;20;3633975;-42
2021/10/17 06:22:48;;;;;;;;;77.33;58.00;;;;;5.94;98.91;100213.78;6311462;20;3647212;-42
2021/10/17 06:25:18;;;;;;;;;88.00;63.33;;;;;5.79;98.16;100212.47;6313868;20;3645087;-42
2021/10/17 06:27:48;;;;;;;;;95.00;70.33;;;;;5.82;98.23;100201.75;6281594;20;3676288;-42
2021/10/17 06:30:17;;;;;;;;;98.00;78.67;;;;;5.95;97.20;100207.56;6285137;20;3690893;-42
2021/10/17 06:32:47;;;;;;;;;85.33;62.33;;;;;6.24;96.52;100213.66;6282983;20;3647164;-41
2021/10/17 06:35:16;;;;;;;;;55.00;45.00;;;;;8.22;86.34;100216.59;6315829;20;2833587;-43
2021/10/17 06:37:45;;;;;;;;;55.67;43.00;;;;;9.21;82.98;100219.22;6281930;20;2856158;-42
2021/10/17 06:40:15;;;;;;;;;54.00;41.67;;;;;9.97;77.14;100219.13;6313432;20;3606642;-42
2021/10/17 06:42:44;;;;;;;;;54.00;42.00;;;;;11.96;71.86;100226.25;6312697;20;2859619;-42
2021/10/17 06:45:12;;;;;;;;;38.00;33.00;;;;;13.71;62.78;100228.88;6285002;20;3580529;-40
2021/10/17 06:47:42;;;;;;;;;44.67;35.00;;;;;14.03;61.51;100240.22;6278517;20;3627443;-41
2021/10/17 06:50:10;;;;;;;;;53.67;43.00;;;;;14.77;59.11;100238.78;6314500;20;3608569;-41
2021/10/17 06:52:40;;;;;;;;;49.67;38.00;;;;;13.05;62.82;100243.88;6283887;20;2852334;-41
2021/10/17 06:55:09;;;;;;;;;39.33;33.67;;;;;8.82;78.08;100238.91;6319098;20;3595112;-41
2021/10/17 06:57:38;;;;;;;;;49.00;39.67;;;;;8.20;83.61;100231.81;6283541;20;2866937;-40
2021/10/17 07:00:09;;;;;;;;;39.67;34.00;;;;;8.08;85.89;100238.53;6313520;20;2858846;-40
2021/10/17 07:02:38;;;;;;;;;50.00;41.00;;;;;8.22;85.43;100243.34;6315652;20;2738839;-43
2021/10/17 07:05:08;;;;;;;;;45.67;38.33;;;;;8.30;84.81;100243.88;6310913;20;3613766;-41
2021/10/17 07:07:38;;;;;;;;;61.67;48.67;;;;;8.16;84.70;100235.56;6315894;20;3622159;-42
2021/10/17 07:10:07;;;;;;;;;54.00;41.00;;;;;8.19;85.81;100240.75;6311298;20;2853399;-40
2021/10/17 07:12:37;;;;;;;;;66.33;50.67;;;;;8.45;85.71;100245.91;6282212;20;3654596;-42
2021/10/17 07:15:06;;;;;;;;;49.50;39.50;;;;;8.54;84.88;100242.81;6314680;20;2838811;-41
2021/10/17 07:17:36;;;;;;;;;62.33;43.67;;;;;8.30;84.85;100243.88;6280777;20;3622096;-41
2021/10/17 07:20:13;;;;;;;;;58.33;45.00;;;;;8.68;84.27;100244.88;6317212;20;2857660;-41
2021/10/17 07:22:43;;;;;;;;;59.33;43.33;;;;;8.97;83.74;100242.69;6317102;20;2861909;-42
2021/10/17 07:25:12;;;;;;;;;57.33;44.00;;;;;8.79;83.22;100249.75;6319533;20;2863877;-43
2021/10/17 07:27:41;;;;;;;;;53.00;41.50;;;;;9.23;81.73;100260.22;6319833;20;2865946;-42
2021/10/17 07:30:11;;;;;;;;;57.67;45.00;;;;;9.36;82.21;100257.84;6287151;20;3608550;-44
2021/10/17 07:32:40;;;;;;;;;66.33;43.33;;;;;9.31;81.71;100252.69;6322758;20;3639907;-43
2021/10/17 07:35:10;;;;;;;;;40.00;33.33;;;;;9.65;80.19;100249.25;6289269;20;3613818;-40
2021/10/17 07:37:38;;;;;;;;;35.00;32.00;;;;;9.67;80.04;100263.47;6321556;20;3608604;-41
2021/10/17 07:40:09;;;;;;;;;28.00;26.67;;;;;9.96;77.64;100249.59;6284313;20;2848377;-43
2021/10/17 07:42:38;;;;;;;;;31.00;28.50;;;;;9.96;76.71;100257.63;6320083;20;2856558;-42
2021/10/17 07:45:09;;;;;;;;;29.67;26.33;;;;;9.55;78.79;100261.38;6288345;20;2846257;-42
2021/10/17 07:47:37;;;;;;;;;36.00;32.00;;;;;10.06;78.11;100253.53;6317434;20;2508691;-41
2021/10/17 07:50:09;;;;;;;;;36.33;33.00;;;;;10.29;78.13;100247.00;6287594;20;3611752;-41
2021/10/17 07:52:39;;;;;;;;;35.00;30.00;;;;;10.81;75.74;100251.47;6319723;20;2849702;-41
2021/10/17 07:55:08;;;;;;;;;28.33;27.33;;;;;10.07;75.30;100253.44;6319882;20;3576290;-43
2021/10/17 07:57:54;;;;;;;;;32.00;26.67;;;;;10.56;73.61;100252.78;6285926;20;2855584;-44
2021/10/17 08:00:27;;;;;;;;;26.00;22.00;;;;;10.43;74.15;100254.38;6319337;20;2848160;-41
2021/10/17 08:02:57;;;;;;;;;34.33;22.33;;;;;10.89;71.55;100249.25;6318466;20;2863907;-42
2021/10/17 08:05:25;;;;;;;;;12.50;10.00;;;;;10.73;70.71;100254.56;6322637;20;2783699;-43
2021/10/17 08:07:54;;;;;;;;;25.50;22.00;;;;;10.81;70.27;100263.09;6288198;20;2835010;-42
2021/10/17 08:10:23;;;;;;;;;28.00;24.50;;;;;10.60;70.37;100257.03;6289737;20;2838879;-42
2021/10/17 08:12:52;;;;;;;;;19.00;19.00;;;;;11.32;69.81;100258.53;6287422;20;2828368;-42
2021/10/17 08:15:21;;;;;;;;;31.00;22.50;;;;;11.39;68.76;100259.91;6288479;20;2849185;-42
2021/10/17 08:17:49;;;;;;;;;32.67;28.33;;;;;11.54;68.73;100260.88;6286084;20;3607530;-41
2021/10/17 08:20:18;;;;;;;;;38.33;32.67;;;;;11.63;67.25;100268.41;6290896;20;3616924;-44
2021/10/17 08:22:48;;;;;;;;;25.33;21.67;;;;;11.18;67.94;100264.66;6285771;20;2852878;-41
2021/10/17 08:25:17;;;;;;;;;23.00;20.00;;;;;11.41;66.81;100259.84;6319854;20;2838281;-42
2021/10/17 08:27:45;;;;;;;;;18.00;16.00;;;;;11.34;66.45;100255.75;6291040;20;2491968;-41
2021/10/17 08:30:14;;;;;;;;;21.50;21.50;;;;;11.51;66.96;100263.75;6288887;20;2844014;-41
2021/10/17 08:32:42;;;;;;;;;30.33;26.67;;;;;11.56;66.33;100267.03;6290736;20;3601288;-43
2021/10/17 08:35:12;;;;;;;;;26.50;20.50;;;;;11.72;66.44;100260.81;6284766;20;2498175;-41
2021/10/17 08:37:40;;;;;;;;;20.00;18.50;;;;;11.80;66.20;100258.53;6284832;20;2496193;-43
2021/10/17 08:40:11;;;;;;;;;42.00;34.00;;;;;12.08;66.55;100263.19;6287124;20;2808610;-42
2021/10/17 08:42:41;;;;;;;;;29.00;23.33;;;;;12.04;65.09;100258.97;6290517;20;3588805;-45
2021/10/17 08:45:09;;;;;;;;;23.50;18.00;;;;;12.08;63.86;100257.81;6288204;20;2835679;-41
2021/10/17 08:47:39;;;;;;;;;21.67;18.00;;;;;11.95;63.20;100257.66;6286567;20;3571159;-41
2021/10/17 08:50:09;;;;;;;;;17.00;17.00;;;;;11.98;62.89;100262.88;6289857;20;2824334;-43
2021/10/17 08:52:37;;;;;;;;;19.33;18.00;;;;;12.28;62.86;100251.25;6287409;20;3559659;-41
2021/10/17 08:55:07;;;;;;;;;18.50;17.00;;;;;12.21;62.34;100258.81;6288591;20;2820056;-45
2021/10/17 08:57:35;;;;;;;;;21.67;16.00;;;;;12.34;62.72;100274.25;6286562;20;3556509;-42
2021/10/17 09:00:34;;;;;;;;;22.00;15.50;;;;;12.33;62.28;100264.47;6284271;20;2811849;-43
2021/10/17 09:03:03;;;;;;;;;16.00;16.00;;;;;12.26;61.59;100269.31;6285834;20;3535629;-43
2021/10/17 09:05:46;;;;;;;;;23.50;18.50;;;;;12.58;62.13;100262.00;6283105;20;2837758;-42
2021/10/17 09:08:27;;;;;;;;;25.00;20.50;;;;;12.77;60.04;100269.84;6282052;20;2852329;-43
2021/10/17 09:10:55;;;;;;;;;24.00;19.50;;;;;12.49;60.20;100273.34;6286810;20;2494010;-44
2021/10/17 09:13:23;;;;;;;;;16.67;14.67;;;;;13.09;60.25;100267.00;6286717;20;3546150;-46
2021/10/17 09:15:55;;;;;;;;;21.50;17.00;;;;;12.98;59.03;100270.34;6285147;20;2487763;-45
2021/10/17 09:18:26;;;;;;;;;16.00;15.00;;;;;12.91;59.29;100269.84;6284328;20;3411747;-43
2021/10/17 09:21:04;;;;;;;;;21.33;16.33;;;;;12.61;59.98;100267.22;6315255;20;3556461;-45
2021/10/17 09:23:38;;;;;;;;;22.00;15.50;;;;;12.40;59.74;100258.63;6280399;20;2836732;-44
2021/10/17 09:26:18;;;;;;;;;36.00;32.00;;;;;13.05;59.96;100265.44;6286617;20;3598239;-45
2021/10/17 09:28:51;;;;;;;;;25.00;19.50;;;;;13.06;58.55;100270.75;6282386;20;2844052;-45
2021/10/17 09:31:22;;;;;;;;;23.50;16.00;;;;;12.75;59.00;100269.06;6283308;20;2494130;-44
2021/10/17 09:33:57;;;;;;;;;21.00;18.00;;;;;12.93;59.31;100273.34;6285366;20;2834768;-44
2021/10/17 09:36:32;;;;;;;;;21.50;18.00;;;;;13.12;58.33;100278.44;6287367;20;2829434;-43
2021/10/17 09:39:12;;;;;;;;;26.00;21.67;;;;;13.19;60.05;100273.50;6283005;20;2841957;-42
2021/10/17 09:41:53;;;;;;;;;20.00;19.50;;;;;13.34;59.19;100277.97;6315680;20;2838815;-42
2021/10/17 09:44:22;;;;;;;;;20.50;17.50;;;;;13.06;58.72;100267.16;6286234;20;2827357;-43
2021/10/17 09:47:01;;;;;;;;;20.00;16.00;;;;;12.74;58.64;100267.31;6284433;20;2494157;-42
2021/10/17 09:49:30;;;;;;;;;16.00;15.00;;;;;13.10;60.38;100264.19;6287248;20;2494454;-45
2021/10/17 09:52:15;;;;;;;;;22.00;20.00;;;;;13.48;58.75;100258.22;6285505;20;2844034;-43
2021/10/17 09:55:08;;;;;;;;;18.50;14.00;;;;;13.14;58.44;100265.72;6286839;20;2812849;-42
2021/10/17 09:57:36;;;;;;;;;20.50;19.00;;;;;13.71;58.56;100270.19;6284739;20;2491901;-43
2021/10/17 10:00:07;;;;;;;;;39.00;34.67;;;;;13.52;57.39;100265.13;6285256;20;2849338;-47
2021/10/17 10:02:36;;;;;;;;;23.50;20.50;;;;;13.48;57.58;100265.44;6318448;20;2843378;-44
2021/10/17 10:05:07;;;;;;;;;20.00;17.50;;;;;13.30;56.77;100264.81;6282183;20;2836820;-43
2021/10/17 10:07:36;;;;;;;;;14.67;13.00;;;;;13.00;57.88;100262.16;6283607;20;3539823;-45
2021/10/17 10:10:05;;;;;;;;;18.50;15.00;;;;;12.84;57.45;100256.84;6282289;20;2808596;-42
2021/10/17 10:12:34;;;;;;;;;16.67;15.33;;;;;13.33;58.54;100262.75;6285224;20;3544041;-45
2021/10/17 10:15:04;;;;;;;;;18.00;16.33;;;;;13.15;59.48;100250.41;6284357;20;3557608;-42
2021/10/17 10:17:38;;;;;;;;;18.00;17.00;;;;;13.49;58.74;100254.56;6282019;20;3561696;-43
2021/10/17 10:20:07;;;;;;;;;22.33;19.00;;;;;13.50;59.25;100252.72;6285507;20;3562779;-43
2021/10/17 10:22:36;;;;;;;;;21.00;16.00;;;;;13.79;56.89;100248.97;6281914;20;3555420;-44
2021/10/17 10:25:06;;;;;;;;;19.33;15.33;;;;;13.55;57.48;100237.09;6284621;20;3547215;-43
2021/10/17 10:27:37;;;;;;;;;18.00;15.50;;;;;13.82;57.43;100240.69;6284914;20;2816932;-43
2021/10/17 10:30:24;;;;;;;;;19.67;18.33;;;;;14.08;57.31;100239.91;6286376;20;2826339;-45
2021/10/17 10:33:24;;;;;;;;;16.67;16.67;;;;;14.07;55.80;100236.34;6319638;20;3557600;-43
2021/10/17 10:36:05;;;;;;;;;16.50;15.50;;;;;13.21;57.60;100233.84;6316282;20;2815908;-45
2021/10/17 10:38:51;;;;;;;;;16.67;16.33;;;;;13.58;57.08;100231.50;6282768;20;3560689;-45
2021/10/17 10:41:28;;;;;;;;;17.00;14.00;;;;;13.98;56.13;100228.84;6282941;20;3524901;-43
2021/10/17 10:44:31;;;;;;;;;23.67;15.33;;;;;13.56;54.61;100230.72;6283234;20;3556477;-49
2021/10/17 10:47:21;;;;;;;;;16.33;15.00;;;;;13.26;56.90;100226.34;6314965;20;3541995;-43
2021/10/17 10:49:52;;;;;;;;;17.00;17.00;;;;;13.44;57.33;100223.44;6312858;20;2500862;-43
2021/10/17 10:52:29;;;;;;;;;17.00;14.00;;;;;14.12;55.41;100220.72;6286132;20;3535689;-43
2021/10/17 10:55:02;;;;;;;;;19.00;17.50;;;;;14.16;54.91;100216.81;6318065;20;2825424;-45
2021/10/17 10:57:47;;;;;;;;;22.50;21.00;;;;;14.34;53.80;100220.09;6287915;20;2832582;-42
2021/10/17 11:00:17;;;;;;;;;15.00;14.00;;;;;14.20;53.68;100218.34;6288196;20;3529418;-45
2021/10/17 11:03:15;;;;;;;;;19.67;14.67;;;;;13.94;54.91;100206.59;6319220;20;3548147;-45
2021/10/17 11:06:06;;;;;;;;;21.00;15.00;;;;;14.30;54.50;100213.19;6318491;20;2831502;-45
2021/10/17 11:08:37;;;;;;;;;20.00;12.33;;;;;14.41;54.72;100207.91;6289538;20;2814828;-43
2021/10/17 11:11:07;;;;;;;;;15.33;13.67;;;;;14.01;55.82;100201.66;6319742;20;3529517;-45